Fort Wingate Army Depot, New Mexico
Current Conditions -  °F | °C
As of 9:53 AM on Thursday 30 Oct 2014 (Local Time) from KGUP Reporting Station
Clear Clear  
Wind Chill: 43°   Ceiling: Unl
Heat Index: 47°   Visibility: 10mi
Dew Point: 19°   Wind: 9mph
Humidity: 33%   Direction: 60°ENE
Pressure: 30.39"   Gusts: NA
Location:  35.4315°N, 108.724°W
Report Text: KGUP 301553Z AUTO 06008KT 10SM CLR 08/M07 A3039 RMK AO2 SLP251 T00831072
Loading
Personal Weather Stations






























Interactive Weather Map
Tropical Storm Tracking
New forecast layout! Learn more

10-Day Weather Forecast

Advertisements
Track Severe Weather on mobile